CST,Max TemperatureF,Mean TemperatureF,Min TemperatureF,Max Dew PointF,MeanDew PointF,Min DewpointF,Max Humidity, Mean Humidity, Min Humidity, Max Sea Level PressureIn, Mean Sea Level PressureIn, Min Sea Level PressureIn, Max VisibilityMiles, Mean VisibilityMiles, Min VisibilityMiles, Max Wind SpeedMPH, Mean Wind SpeedMPH, Max Gust SpeedMPH,PrecipitationIn, CloudCover, Events, WindDirDegrees
2011-12-1,38,34,30,33,26,13,99,78,35,30.35,30.23,30.08,10,8,1,12,3,16,0.00,6,Rain-Snow,342
2011-12-2,35,22,8,29,16,6,97,74,42,30.41,30.32,30.18,10,10,7,14,3,20,0.00,1,Rain,177
2011-12-3,37,34,32,37,34,30,100,98,84,30.18,30.06,29.90,7,4,1,7,2,,0.24,8,Rain,200
2011-12-4,32,30,29,32,30,28,100,96,93,30.23,30.01,29.82,10,7,2,12,7,,0.00,8,Snow,303
2011-12-5,28,26,24,27,25,23,97,95,91,30.41,30.36,30.29,10,7,2,8,4,,0.00,8,Snow,310
2011-12-6,25,23,21,23,21,20,96,92,86,30.39,30.28,30.12,10,8,4,6,3,,0.00,8,Snow,305
2011-12-7,22,17,11,18,14,10,96,80,70,30.10,30.03,29.97,10,10,10,10,5,,0.00,5,,258
2011-12-8,28,20,11,20,14,5,95,73,46,30.18,30.13,30.07,10,10,10,14,4,20,0.00,3,,252
2011-12-9,17,9,1,10,5,-1,90,83,73,30.27,30.21,30.18,10,10,10,5,2,,0.00,0,,248
2011-12-10,,,,,,,,,,,,,,,,,,,0.00,,,-1
2011-12-11,43,38,33,33,30,27,90,79,53,30.23,30.21,30.16,10,7,5,12,7,18,0.00,5,,205
2011-12-12,40,38,36,36,35,32,95,88,78,30.31,30.25,30.22,10,8,4,8,3,,0.00,8,Rain,192
2011-12-13,41,36,32,34,33,32,100,92,75,30.36,30.31,30.23,10,8,4,5,0,,0.00,8,,130
2011-12-14,42,38,34,42,38,33,100,98,90,30.16,29.87,29.60,10,5,1,15,3,,0.09,8,Rain,117
2011-12-15,41,32,24,41,27,16,100,78,57,30.29,29.89,29.59,10,9,4,22,12,34,0.08,7,Rain,284
2011-12-16,27,20,12,16,15,11,95,78,61,30.41,30.36,30.31,10,10,10,9,3,,0.00,1,,291
2011-12-17,30,20,9,26,21,8,99,92,83,30.34,30.21,30.12,10,8,1,9,1,,0.00,6,Snow,244
2011-12-18,46,26,6,35,22,5,96,78,53,30.16,29.94,29.74,10,10,7,13,3,21,0.00,0,,205
2011-12-19,38,33,28,34,26,20,100,77,62,30.25,30.09,29.79,10,10,3,14,6,18,0.00,6,,326
2011-12-20,33,26,18,26,22,18,99,91,69,30.25,30.03,29.77,10,10,10,6,0,,0.00,4,,172
2011-12-21,39,30,21,30,27,21,99,87,57,29.88,29.74,29.69,10,9,4,7,1,,0.00,5,,246
2011-12-22,31,22,11,29,21,10,98,81,63,30.31,30.18,29.96,10,9,2,12,5,,0.00,6,Snow,336
2011-12-23,28,15,2,24,12,0,98,86,66,30.34,30.19,30.05,10,9,1,14,2,21,0.00,4,Snow,203
2011-12-24,40,21,2,26,15,0,98,78,53,30.21,30.14,30.05,10,10,7,13,2,18,0.00,0,,234
2011-12-25,40,36,27,26,25,23,84,63,56,30.28,30.11,29.97,10,10,10,20,8,25,0.00,3,,276
2011-12-26,46,30,13,27,20,11,97,68,34,30.24,30.02,29.82,10,10,10,16,5,30,0.00,1,,206
2011-12-27,37,28,19,30,23,13,99,72,55,30.05,29.80,29.64,10,10,10,20,6,26,0.00,5,,325
2011-12-28,32,23,14,22,16,12,90,74,55,30.05,29.95,29.75,10,10,10,10,2,,0.00,5,,130
2011-12-29,39,31,23,30,27,23,97,80,64,29.69,29.59,29.45,10,10,7,13,4,21,0.00,4,,312
2011-12-30,32,26,21,28,26,21,97,86,77,29.84,29.69,29.62,10,9,1,8,3,,0.00,6,Snow,43
2011-12-31,36,24,13,34,25,12,99,94,89,29.89,29.79,29.65,10,8,4,13,3,17,0.00,5,,133